sensor_id;sensor_type;location;lat;lon;timestamp;P1;durP1;ratioP1;P2;durP2;ratioP2
2680;SDS011;1350;42.134;24.708;2023-04-01T00:00:49;14.93;;;10.80;;
2680;SDS011;1350;42.134;24.708;2023-04-01T00:03:17;14.65;;;11.32;;
2680;SDS011;1350;42.134;24.708;2023-04-01T00:05:44;13.65;;;10.88;;
2680;SDS011;1350;42.134;24.708;2023-04-01T00:08:12;18.08;;;10.98;;
2680;SDS011;1350;42.134;24.708;2023-04-01T00:10:39;17.60;;;12.02;;
2680;SDS011;1350;42.134;24.708;2023-04-01T00:13:06;18.83;;;12.48;;
2680;SDS011;1350;42.134;24.708;2023-04-01T00:15:33;16.00;;;11.65;;
2680;SDS011;1350;42.134;24.708;2023-04-01T00:18:00;17.33;;;11.90;;
2680;SDS011;1350;42.134;24.708;2023-04-01T00:20:27;20.60;;;13.15;;
2680;SDS011;1350;42.134;24.708;2023-04-01T00:22:54;17.20;;;12.40;;
2680;SDS011;1350;42.134;24.708;2023-04-01T00:25:23;18.20;;;13.27;;
2680;SDS011;1350;42.134;24.708;2023-04-01T00:27:49;19.90;;;13.00;;
2680;SDS011;1350;42.134;24.708;2023-04-01T00:30:17;17.30;;;14.30;;
2680;SDS011;1350;42.134;24.708;2023-04-01T00:32:44;16.73;;;12.20;;
2680;SDS011;1350;42.134;24.708;2023-04-01T00:35:11;16.25;;;12.30;;
2680;SDS011;1350;42.134;24.708;2023-04-01T00:37:38;15.90;;;11.27;;
2680;SDS011;1350;42.134;24.708;2023-04-01T00:40:06;24.40;;;14.23;;
2680;SDS011;1350;42.134;24.708;2023-04-01T00:42:36;18.65;;;12.82;;
2680;SDS011;1350;42.134;24.708;2023-04-01T00:47:55;19.23;;;12.85;;
2680;SDS011;1350;42.134;24.708;2023-04-01T00:50:25;17.00;;;13.68;;
2680;SDS011;1350;42.134;24.708;2023-04-01T00:52:54;19.83;;;12.70;;
2680;SDS011;1350;42.134;24.708;2023-04-01T00:55:21;25.95;;;14.38;;
2680;SDS011;1350;42.134;24.708;2023-04-01T00:57:51;16.27;;;12.93;;
2680;SDS011;1350;42.134;24.708;2023-04-01T01:00:21;20.98;;;13.23;;
2680;SDS011;1350;42.134;24.708;2023-04-01T01:02:48;19.58;;;13.13;;
2680;SDS011;1350;42.134;24.708;2023-04-01T01:05:17;19.73;;;13.95;;
2680;SDS011;1350;42.134;24.708;2023-04-01T01:07:51;22.55;;;15.40;;
2680;SDS011;1350;42.134;24.708;2023-04-01T01:10:30;16.80;;;13.27;;
2680;SDS011;1350;42.134;24.708;2023-04-01T01:13:01;21.27;;;16.25;;
2680;SDS011;1350;42.134;24.708;2023-04-01T01:15:37;17.00;;;14.07;;
2680;SDS011;1350;42.134;24.708;2023-04-01T01:18:14;18.48;;;14.35;;
2680;SDS011;1350;42.134;24.708;2023-04-01T01:24:02;19.27;;;14.40;;
2680;SDS011;1350;42.134;24.708;2023-04-01T01:26:46;19.20;;;13.52;;
2680;SDS011;1350;42.134;24.708;2023-04-01T01:29:28;21.42;;;15.38;;
2680;SDS011;1350;42.134;24.708;2023-04-01T01:32:09;21.15;;;14.10;;
2680;SDS011;1350;42.134;24.708;2023-04-01T01:34:46;16.95;;;14.00;;
2680;SDS011;1350;42.134;24.708;2023-04-01T01:37:21;16.48;;;14.27;;
2680;SDS011;1350;42.134;24.708;2023-04-01T01:39:52;18.90;;;14.18;;
2680;SDS011;1350;42.134;24.708;2023-04-01T01:42:25;17.60;;;13.00;;
2680;SDS011;1350;42.134;24.708;2023-04-01T01:44:54;19.77;;;13.90;;
2680;SDS011;1350;42.134;24.708;2023-04-01T01:47:24;21.33;;;13.20;;
2680;SDS011;1350;42.134;24.708;2023-04-01T01:49:52;14.55;;;12.48;;
2680;SDS011;1350;42.134;24.708;2023-04-01T01:52:22;19.75;;;14.02;;
2680;SDS011;1350;42.134;24.708;2023-04-01T01:54:50;18.42;;;14.23;;
2680;SDS011;1350;42.134;24.708;2023-04-01T01:57:19;21.38;;;15.07;;
2680;SDS011;1350;42.134;24.708;2023-04-01T01:59:49;21.23;;;14.95;;
2680;SDS011;1350;42.134;24.708;2023-04-01T02:02:20;17.75;;;15.27;;
2680;SDS011;1350;42.134;24.708;2023-04-01T02:04:49;20.70;;;15.80;;
2680;SDS011;1350;42.134;24.708;2023-04-01T02:07:18;26.65;;;16.90;;
2680;SDS011;1350;42.134;24.708;2023-04-01T02:09:49;22.02;;;16.63;;
2680;SDS011;1350;42.134;24.708;2023-04-01T02:12:16;25.42;;;17.85;;
2680;SDS011;1350;42.134;24.708;2023-04-01T02:14:47;20.08;;;16.15;;
2680;SDS011;1350;42.134;24.708;2023-04-01T02:17:19;22.90;;;17.67;;
2680;SDS011;1350;42.134;24.708;2023-04-01T02:19:48;24.75;;;18.45;;
2680;SDS011;1350;42.134;24.708;2023-04-01T02:22:20;24.92;;;17.08;;
2680;SDS011;1350;42.134;24.708;2023-04-01T02:24:52;23.27;;;17.63;;
2680;SDS011;1350;42.134;24.708;2023-04-01T02:27:21;24.17;;;17.35;;
2680;SDS011;1350;42.134;24.708;2023-04-01T02:29:48;20.13;;;16.30;;
2680;SDS011;1350;42.134;24.708;2023-04-01T02:32:15;22.42;;;18.88;;
2680;SDS011;1350;42.134;24.708;2023-04-01T02:34:44;25.15;;;18.60;;
2680;SDS011;1350;42.134;24.708;2023-04-01T02:37:11;22.75;;;17.70;;
2680;SDS011;1350;42.134;24.708;2023-04-01T02:39:39;29.88;;;17.05;;
2680;SDS011;1350;42.134;24.708;2023-04-01T02:42:09;22.45;;;17.10;;
2680;SDS011;1350;42.134;24.708;2023-04-01T02:44:36;27.58;;;18.55;;
2680;SDS011;1350;42.134;24.708;2023-04-01T02:47:03;24.70;;;17.75;;
2680;SDS011;1350;42.134;24.708;2023-04-01T02:49:29;25.48;;;19.35;;
2680;SDS011;1350;42.134;24.708;2023-04-01T02:51:56;26.30;;;16.63;;
2680;SDS011;1350;42.134;24.708;2023-04-01T02:54:25;22.23;;;16.48;;
2680;SDS011;1350;42.134;24.708;2023-04-01T02:56:51;25.13;;;16.63;;
2680;SDS011;1350;42.134;24.708;2023-04-01T02:59:19;20.67;;;16.42;;
2680;SDS011;1350;42.134;24.708;2023-04-01T03:01:46;24.38;;;17.65;;
2680;SDS011;1350;42.134;24.708;2023-04-01T03:04:13;25.15;;;19.45;;
2680;SDS011;1350;42.134;24.708;2023-04-01T03:06:40;23.55;;;16.40;;
2680;SDS011;1350;42.134;24.708;2023-04-01T03:09:06;24.92;;;17.65;;
2680;SDS011;1350;42.134;24.708;2023-04-01T03:11:34;25.52;;;18.75;;
2680;SDS011;1350;42.134;24.708;2023-04-01T03:14:00;22.60;;;17.40;;
2680;SDS011;1350;42.134;24.708;2023-04-01T03:16:28;22.60;;;17.45;;
2680;SDS011;1350;42.134;24.708;2023-04-01T03:18:55;29.90;;;18.48;;
2680;SDS011;1350;42.134;24.708;2023-04-01T03:21:24;26.33;;;18.48;;
2680;SDS011;1350;42.134;24.708;2023-04-01T03:23:51;25.33;;;17.13;;
2680;SDS011;1350;42.134;24.708;2023-04-01T03:26:18;24.20;;;18.80;;
2680;SDS011;1350;42.134;24.708;2023-04-01T03:28:45;22.45;;;19.27;;
2680;SDS011;1350;42.134;24.708;2023-04-01T03:31:11;26.17;;;18.08;;
2680;SDS011;1350;42.134;24.708;2023-04-01T03:33:41;27.70;;;19.75;;
2680;SDS011;1350;42.134;24.708;2023-04-01T03:36:08;29.83;;;19.58;;
2680;SDS011;1350;42.134;24.708;2023-04-01T03:38:39;31.25;;;19.05;;
2680;SDS011;1350;42.134;24.708;2023-04-01T03:41:11;27.77;;;20.02;;
2680;SDS011;1350;42.134;24.708;2023-04-01T03:43:38;23.13;;;20.65;;
2680;SDS011;1350;42.134;24.708;2023-04-01T03:46:05;43.20;;;20.15;;
2680;SDS011;1350;42.134;24.708;2023-04-01T03:48:32;29.45;;;20.48;;
2680;SDS011;1350;42.134;24.708;2023-04-01T03:51:00;24.95;;;19.92;;
2680;SDS011;1350;42.134;24.708;2023-04-01T03:53:27;35.40;;;19.70;;
2680;SDS011;1350;42.134;24.708;2023-04-01T03:55:56;29.05;;;18.70;;
2680;SDS011;1350;42.134;24.708;2023-04-01T03:58:23;27.40;;;20.13;;
2680;SDS011;1350;42.134;24.708;2023-04-01T04:00:50;32.70;;;19.67;;
2680;SDS011;1350;42.134;24.708;2023-04-01T04:03:16;26.17;;;18.45;;
2680;SDS011;1350;42.134;24.708;2023-04-01T04:05:46;34.35;;;18.77;;
2680;SDS011;1350;42.134;24.708;2023-04-01T04:08:15;25.70;;;18.30;;
2680;SDS011;1350;42.134;24.708;2023-04-01T04:10:42;25.38;;;17.52;;
2680;SDS011;1350;42.134;24.708;2023-04-01T04:13:09;23.90;;;18.70;;
2680;SDS011;1350;42.134;24.708;2023-04-01T04:15:36;28.48;;;17.15;;
2680;SDS011;1350;42.134;24.708;2023-04-01T04:18:04;24.52;;;18.17;;
2680;SDS011;1350;42.134;24.708;2023-04-01T04:20:31;26.13;;;17.73;;
2680;SDS011;1350;42.134;24.708;2023-04-01T04:22:57;23.13;;;17.25;;
2680;SDS011;1350;42.134;24.708;2023-04-01T04:25:27;23.35;;;18.02;;
2680;SDS011;1350;42.134;24.708;2023-04-01T04:27:54;28.10;;;17.50;;
2680;SDS011;1350;42.134;24.708;2023-04-01T04:30:21;28.05;;;15.25;;
2680;SDS011;1350;42.134;24.708;2023-04-01T04:32:47;28.92;;;16.85;;
2680;SDS011;1350;42.134;24.708;2023-04-01T04:35:14;27.10;;;16.42;;
2680;SDS011;1350;42.134;24.708;2023-04-01T04:37:41;28.23;;;18.33;;
2680;SDS011;1350;42.134;24.708;2023-04-01T04:40:08;20.52;;;16.10;;
2680;SDS011;1350;42.134;24.708;2023-04-01T04:42:36;52.25;;;38.10;;
2680;SDS011;1350;42.134;24.708;2023-04-01T04:45:03;73.00;;;47.53;;
2680;SDS011;1350;42.134;24.708;2023-04-01T04:47:33;39.10;;;21.75;;
2680;SDS011;1350;42.134;24.708;2023-04-01T04:49:59;24.80;;;18.95;;
2680;SDS011;1350;42.134;24.708;2023-04-01T04:52:26;25.27;;;15.98;;
2680;SDS011;1350;42.134;24.708;2023-04-01T04:54:53;27.45;;;16.33;;
2680;SDS011;1350;42.134;24.708;2023-04-01T04:57:20;24.35;;;18.45;;
2680;SDS011;1350;42.134;24.708;2023-04-01T04:59:48;23.27;;;16.42;;
2680;SDS011;1350;42.134;24.708;2023-04-01T05:02:14;27.58;;;18.60;;
2680;SDS011;1350;42.134;24.708;2023-04-01T05:04:41;29.13;;;17.20;;
2680;SDS011;1350;42.134;24.708;2023-04-01T05:07:08;21.52;;;16.50;;
2680;SDS011;1350;42.134;24.708;2023-04-01T05:09:35;23.98;;;18.77;;
2680;SDS011;1350;42.134;24.708;2023-04-01T05:12:02;30.05;;;17.60;;
2680;SDS011;1350;42.134;24.708;2023-04-01T05:14:29;30.80;;;18.88;;
2680;SDS011;1350;42.134;24.708;2023-04-01T05:16:57;23.52;;;16.63;;
2680;SDS011;1350;42.134;24.708;2023-04-01T05:19:23;24.48;;;18.80;;
2680;SDS011;1350;42.134;24.708;2023-04-01T05:21:50;28.90;;;19.83;;
2680;SDS011;1350;42.134;24.708;2023-04-01T05:24:17;27.13;;;18.02;;
2680;SDS011;1350;42.134;24.708;2023-04-01T05:26:44;88.45;;;63.95;;
2680;SDS011;1350;42.134;24.708;2023-04-01T05:29:11;65.82;;;36.38;;
2680;SDS011;1350;42.134;24.708;2023-04-01T05:31:38;48.10;;;23.63;;
2680;SDS011;1350;42.134;24.708;2023-04-01T05:34:06;24.75;;;16.60;;
2680;SDS011;1350;42.134;24.708;2023-04-01T05:36:33;35.35;;;17.38;;
2680;SDS011;1350;42.134;24.708;2023-04-01T05:39:00;24.95;;;18.23;;
2680;SDS011;1350;42.134;24.708;2023-04-01T05:41:28;27.88;;;17.67;;
2680;SDS011;1350;42.134;24.708;2023-04-01T05:43:55;20.95;;;15.93;;
2680;SDS011;1350;42.134;24.708;2023-04-01T05:46:21;25.88;;;17.35;;
2680;SDS011;1350;42.134;24.708;2023-04-01T05:48:48;26.00;;;17.40;;
2680;SDS011;1350;42.134;24.708;2023-04-01T05:51:16;27.05;;;16.83;;
2680;SDS011;1350;42.134;24.708;2023-04-01T05:53:43;34.30;;;20.10;;
2680;SDS011;1350;42.134;24.708;2023-04-01T05:56:10;29.17;;;18.85;;
2680;SDS011;1350;42.134;24.708;2023-04-01T05:58:37;29.85;;;18.42;;
2680;SDS011;1350;42.134;24.708;2023-04-01T06:01:05;34.20;;;18.75;;
2680;SDS011;1350;42.134;24.708;2023-04-01T06:03:33;32.83;;;17.65;;
2680;SDS011;1350;42.134;24.708;2023-04-01T06:06:00;34.78;;;19.48;;
2680;SDS011;1350;42.134;24.708;2023-04-01T06:08:29;28.33;;;17.88;;
2680;SDS011;1350;42.134;24.708;2023-04-01T06:11:03;27.30;;;17.27;;
2680;SDS011;1350;42.134;24.708;2023-04-01T06:13:44;39.45;;;19.35;;
2680;SDS011;1350;42.134;24.708;2023-04-01T06:16:25;38.67;;;20.70;;
2680;SDS011;1350;42.134;24.708;2023-04-01T06:19:00;42.00;;;20.92;;
2680;SDS011;1350;42.134;24.708;2023-04-01T06:21:40;28.95;;;19.25;;
2680;SDS011;1350;42.134;24.708;2023-04-01T06:24:36;30.48;;;18.90;;
2680;SDS011;1350;42.134;24.708;2023-04-01T06:27:18;21.95;;;12.82;;
2680;SDS011;1350;42.134;24.708;2023-04-01T06:30:26;15.82;;;10.63;;
2680;SDS011;1350;42.134;24.708;2023-04-01T06:33:13;15.00;;;10.63;;
2680;SDS011;1350;42.134;24.708;2023-04-01T06:36:10;20.05;;;11.35;;
2680;SDS011;1350;42.134;24.708;2023-04-01T06:38:55;18.48;;;10.95;;
2680;SDS011;1350;42.134;24.708;2023-04-01T06:41:41;19.65;;;9.63;;
2680;SDS011;1350;42.134;24.708;2023-04-01T06:44:21;13.07;;;9.32;;
2680;SDS011;1350;42.134;24.708;2023-04-01T06:46:56;17.50;;;9.90;;
2680;SDS011;1350;42.134;24.708;2023-04-01T06:49:30;17.63;;;10.68;;
2680;SDS011;1350;42.134;24.708;2023-04-01T06:52:07;13.90;;;9.55;;
2680;SDS011;1350;42.134;24.708;2023-04-01T06:54:43;17.50;;;10.20;;
2680;SDS011;1350;42.134;24.708;2023-04-01T06:57:19;20.58;;;9.85;;
2680;SDS011;1350;42.134;24.708;2023-04-01T06:59:50;15.95;;;10.77;;
2680;SDS011;1350;42.134;24.708;2023-04-01T07:02:23;17.25;;;10.88;;
2680;SDS011;1350;42.134;24.708;2023-04-01T07:04:54;16.77;;;10.73;;
2680;SDS011;1350;42.134;24.708;2023-04-01T07:07:26;14.80;;;8.80;;
2680;SDS011;1350;42.134;24.708;2023-04-01T07:09:57;17.58;;;8.68;;
2680;SDS011;1350;42.134;24.708;2023-04-01T07:12:32;13.85;;;8.95;;
2680;SDS011;1350;42.134;24.708;2023-04-01T07:15:10;18.48;;;10.85;;
2680;SDS011;1350;42.134;24.708;2023-04-01T07:17:43;13.75;;;9.45;;
2680;SDS011;1350;42.134;24.708;2023-04-01T07:20:17;14.50;;;9.88;;
2680;SDS011;1350;42.134;24.708;2023-04-01T07:22:49;14.40;;;10.80;;
2680;SDS011;1350;42.134;24.708;2023-04-01T07:25:18;15.32;;;10.05;;
2680;SDS011;1350;42.134;24.708;2023-04-01T07:27:51;18.27;;;9.68;;
2680;SDS011;1350;42.134;24.708;2023-04-01T07:30:20;18.33;;;9.98;;
2680;SDS011;1350;42.134;24.708;2023-04-01T07:32:49;13.25;;;9.55;;
2680;SDS011;1350;42.134;24.708;2023-04-01T07:35:23;22.60;;;9.77;;
2680;SDS011;1350;42.134;24.708;2023-04-01T07:38:06;18.08;;;8.90;;
2680;SDS011;1350;42.134;24.708;2023-04-01T07:40:42;14.52;;;8.18;;
2680;SDS011;1350;42.134;24.708;2023-04-01T07:46:19;18.40;;;9.50;;
2680;SDS011;1350;42.134;24.708;2023-04-01T07:49:00;15.80;;;10.10;;
2680;SDS011;1350;42.134;24.708;2023-04-01T07:51:31;15.07;;;10.52;;
2680;SDS011;1350;42.134;24.708;2023-04-01T07:54:06;13.45;;;9.55;;
2680;SDS011;1350;42.134;24.708;2023-04-01T07:56:40;18.25;;;9.60;;
2680;SDS011;1350;42.134;24.708;2023-04-01T07:59:15;17.10;;;9.63;;
2680;SDS011;1350;42.134;24.708;2023-04-01T08:01:48;12.93;;;9.38;;
2680;SDS011;1350;42.134;24.708;2023-04-01T08:04:27;24.48;;;10.43;;
2680;SDS011;1350;42.134;24.708;2023-04-01T08:07:06;16.92;;;9.55;;
2680;SDS011;1350;42.134;24.708;2023-04-01T08:09:38;14.25;;;9.57;;
2680;SDS011;1350;42.134;24.708;2023-04-01T08:12:14;16.08;;;9.77;;
2680;SDS011;1350;42.134;24.708;2023-04-01T08:14:55;16.42;;;10.85;;
2680;SDS011;1350;42.134;24.708;2023-04-01T08:17:28;14.00;;;9.82;;
2680;SDS011;1350;42.134;24.708;2023-04-01T08:20:09;15.63;;;9.23;;
2680;SDS011;1350;42.134;24.708;2023-04-01T08:23:03;14.68;;;9.90;;
2680;SDS011;1350;42.134;24.708;2023-04-01T08:25:38;13.38;;;9.95;;
2680;SDS011;1350;42.134;24.708;2023-04-01T08:28:13;15.95;;;9.93;;
2680;SDS011;1350;42.134;24.708;2023-04-01T08:30:46;15.27;;;9.90;;
2680;SDS011;1350;42.134;24.708;2023-04-01T08:33:17;15.23;;;9.75;;
2680;SDS011;1350;42.134;24.708;2023-04-01T08:35:50;11.70;;;8.82;;
2680;SDS011;1350;42.134;24.708;2023-04-01T08:38:23;11.48;;;9.00;;
2680;SDS011;1350;42.134;24.708;2023-04-01T08:41:00;15.07;;;8.75;;
2680;SDS011;1350;42.134;24.708;2023-04-01T08:43:45;14.85;;;10.20;;
2680;SDS011;1350;42.134;24.708;2023-04-01T08:46:40;12.45;;;8.68;;
2680;SDS011;1350;42.134;24.708;2023-04-01T08:49:36;20.13;;;9.20;;
2680;SDS011;1350;42.134;24.708;2023-04-01T08:52:22;16.80;;;9.15;;
2680;SDS011;1350;42.134;24.708;2023-04-01T08:55:22;12.77;;;8.50;;
2680;SDS011;1350;42.134;24.708;2023-04-01T08:57:57;16.10;;;8.45;;
2680;SDS011;1350;42.134;24.708;2023-04-01T09:00:32;21.30;;;9.20;;
2680;SDS011;1350;42.134;24.708;2023-04-01T09:03:17;14.20;;;9.40;;
2680;SDS011;1350;42.134;24.708;2023-04-01T09:06:11;19.10;;;9.52;;
2680;SDS011;1350;42.134;24.708;2023-04-01T09:08:53;14.20;;;8.95;;
2680;SDS011;1350;42.134;24.708;2023-04-01T09:11:40;12.73;;;9.10;;
2680;SDS011;1350;42.134;24.708;2023-04-01T09:14:22;27.73;;;9.35;;
2680;SDS011;1350;42.134;24.708;2023-04-01T09:17:14;15.13;;;10.10;;
2680;SDS011;1350;42.134;24.708;2023-04-01T09:23:10;23.95;;;12.38;;
2680;SDS011;1350;42.134;24.708;2023-04-01T09:26:01;17.13;;;9.73;;
2680;SDS011;1350;42.134;24.708;2023-04-01T09:28:41;18.55;;;11.95;;
2680;SDS011;1350;42.134;24.708;2023-04-01T09:31:17;16.83;;;11.30;;
2680;SDS011;1350;42.134;24.708;2023-04-01T09:36:54;21.20;;;10.43;;
2680;SDS011;1350;42.134;24.708;2023-04-01T09:39:45;12.60;;;9.63;;
2680;SDS011;1350;42.134;24.708;2023-04-01T09:42:28;17.25;;;9.38;;
2680;SDS011;1350;42.134;24.708;2023-04-01T09:45:08;13.50;;;9.70;;
2680;SDS011;1350;42.134;24.708;2023-04-01T09:47:50;35.58;;;12.80;;
2680;SDS011;1350;42.134;24.708;2023-04-01T09:50:34;12.70;;;9.35;;
2680;SDS011;1350;42.134;24.708;2023-04-01T09:53:11;15.80;;;11.03;;
2680;SDS011;1350;42.134;24.708;2023-04-01T09:58:53;15.50;;;9.73;;
2680;SDS011;1350;42.134;24.708;2023-04-01T10:01:45;17.88;;;9.35;;
2680;SDS011;1350;42.134;24.708;2023-04-01T10:08:05;15.40;;;9.25;;
2680;SDS011;1350;42.134;24.708;2023-04-01T10:11:09;13.23;;;8.80;;
2680;SDS011;1350;42.134;24.708;2023-04-01T10:13:54;14.53;;;8.83;;
2680;SDS011;1350;42.134;24.708;2023-04-01T10:29:13;18.77;;;11.83;;
2680;SDS011;1350;42.134;24.708;2023-04-01T10:44:35;14.73;;;10.23;;
2680;SDS011;1350;42.134;24.708;2023-04-01T10:47:48;20.63;;;11.90;;
2680;SDS011;1350;42.134;24.708;2023-04-01T10:57:09;15.83;;;11.77;;
2680;SDS011;1350;42.134;24.708;2023-04-01T11:03:18;18.97;;;11.77;;
2680;SDS011;1350;42.134;24.708;2023-04-01T11:15:56;22.80;;;11.67;;
2680;SDS011;1350;42.134;24.708;2023-04-01T11:21:59;22.83;;;10.30;;
2680;SDS011;1350;42.134;24.708;2023-04-01T11:28:01;22.20;;;10.33;;
2680;SDS011;1350;42.134;24.708;2023-04-01T11:31:00;17.23;;;10.90;;
2680;SDS011;1350;42.134;24.708;2023-04-01T11:33:38;12.57;;;9.37;;
2680;SDS011;1350;42.134;24.708;2023-04-01T11:36:19;19.30;;;11.87;;
2680;SDS011;1350;42.134;24.708;2023-04-01T11:39:03;13.70;;;10.17;;
2680;SDS011;1350;42.134;24.708;2023-04-01T11:41:48;17.77;;;11.90;;
2680;SDS011;1350;42.134;24.708;2023-04-01T11:44:23;30.10;;;13.53;;
2680;SDS011;1350;42.134;24.708;2023-04-01T11:49:44;18.20;;;9.90;;
2680;SDS011;1350;42.134;24.708;2023-04-01T11:52:51;13.90;;;9.00;;
2680;SDS011;1350;42.134;24.708;2023-04-01T11:55:28;14.70;;;9.60;;
2680;SDS011;1350;42.134;24.708;2023-04-01T11:58:09;17.47;;;10.90;;
2680;SDS011;1350;42.134;24.708;2023-04-01T12:03:46;20.40;;;9.70;;
2680;SDS011;1350;42.134;24.708;2023-04-01T12:06:23;21.40;;;10.63;;
2680;SDS011;1350;42.134;24.708;2023-04-01T12:08:58;22.03;;;10.97;;
2680;SDS011;1350;42.134;24.708;2023-04-01T12:11:32;11.93;;;9.90;;
2680;SDS011;1350;42.134;24.708;2023-04-01T12:14:08;12.73;;;8.97;;
2680;SDS011;1350;42.134;24.708;2023-04-01T12:16:50;17.20;;;10.67;;
2680;SDS011;1350;42.134;24.708;2023-04-01T12:19:27;16.83;;;9.73;;
2680;SDS011;1350;42.134;24.708;2023-04-01T12:22:12;12.93;;;9.40;;
2680;SDS011;1350;42.134;24.708;2023-04-01T12:24:51;14.43;;;9.90;;
2680;SDS011;1350;42.134;24.708;2023-04-01T12:27:29;14.63;;;8.90;;
2680;SDS011;1350;42.134;24.708;2023-04-01T12:30:09;14.53;;;8.60;;
2680;SDS011;1350;42.134;24.708;2023-04-01T12:33:03;15.30;;;7.83;;
2680;SDS011;1350;42.134;24.708;2023-04-01T12:35:47;19.50;;;9.07;;
2680;SDS011;1350;42.134;24.708;2023-04-01T12:38:24;14.73;;;8.47;;
2680;SDS011;1350;42.134;24.708;2023-04-01T12:43:57;13.17;;;8.50;;
2680;SDS011;1350;42.134;24.708;2023-04-01T12:46:38;13.27;;;7.37;;
2680;SDS011;1350;42.134;24.708;2023-04-01T12:52:19;17.50;;;8.03;;
2680;SDS011;1350;42.134;24.708;2023-04-01T12:55:00;17.87;;;8.53;;
2680;SDS011;1350;42.134;24.708;2023-04-01T12:58:07;38.83;;;10.80;;
2680;SDS011;1350;42.134;24.708;2023-04-01T13:01:04;16.40;;;7.70;;
2680;SDS011;1350;42.134;24.708;2023-04-01T13:03:55;10.50;;;7.57;;
2680;SDS011;1350;42.134;24.708;2023-04-01T13:06:41;16.50;;;8.43;;
2680;SDS011;1350;42.134;24.708;2023-04-01T13:09:22;18.77;;;9.67;;
2680;SDS011;1350;42.134;24.708;2023-04-01T13:12:03;15.50;;;9.20;;
2680;SDS011;1350;42.134;24.708;2023-04-01T13:17:52;20.70;;;9.80;;
2680;SDS011;1350;42.134;24.708;2023-04-01T13:20:32;17.63;;;10.27;;
2680;SDS011;1350;42.134;24.708;2023-04-01T13:23:09;21.83;;;9.30;;
2680;SDS011;1350;42.134;24.708;2023-04-01T13:25:47;16.90;;;9.73;;
2680;SDS011;1350;42.134;24.708;2023-04-01T13:28:21;16.90;;;9.77;;
2680;SDS011;1350;42.134;24.708;2023-04-01T13:30:53;14.87;;;9.07;;
2680;SDS011;1350;42.134;24.708;2023-04-01T13:33:30;28.97;;;11.57;;
2680;SDS011;1350;42.134;24.708;2023-04-01T13:36:10;36.83;;;13.20;;
2680;SDS011;1350;42.134;24.708;2023-04-01T13:38:53;29.63;;;12.30;;
2680;SDS011;1350;42.134;24.708;2023-04-01T13:41:43;36.40;;;12.30;;
2680;SDS011;1350;42.134;24.708;2023-04-01T13:44:28;23.60;;;12.30;;
2680;SDS011;1350;42.134;24.708;2023-04-01T13:47:06;28.90;;;11.30;;
2680;SDS011;1350;42.134;24.708;2023-04-01T13:52:58;16.57;;;11.47;;
2680;SDS011;1350;42.134;24.708;2023-04-01T13:55:51;22.83;;;12.90;;
2680;SDS011;1350;42.134;24.708;2023-04-01T13:58:31;25.60;;;12.20;;
2680;SDS011;1350;42.134;24.708;2023-04-01T14:01:17;18.90;;;11.97;;
2680;SDS011;1350;42.134;24.708;2023-04-01T14:03:53;21.40;;;10.47;;
2680;SDS011;1350;42.134;24.708;2023-04-01T14:06:34;17.87;;;10.30;;
2680;SDS011;1350;42.134;24.708;2023-04-01T14:09:25;17.73;;;10.27;;
2680;SDS011;1350;42.134;24.708;2023-04-01T14:12:06;13.03;;;8.93;;
2680;SDS011;1350;42.134;24.708;2023-04-01T14:14:43;14.50;;;8.00;;
2680;SDS011;1350;42.134;24.708;2023-04-01T14:17:30;13.37;;;9.03;;
2680;SDS011;1350;42.134;24.708;2023-04-01T14:23:20;16.60;;;11.20;;
2680;SDS011;1350;42.134;24.708;2023-04-01T14:26:21;12.90;;;7.50;;
2680;SDS011;1350;42.134;24.708;2023-04-01T14:28:57;14.33;;;8.63;;
2680;SDS011;1350;42.134;24.708;2023-04-01T14:31:36;12.33;;;6.03;;
2680;SDS011;1350;42.134;24.708;2023-04-01T14:34:22;13.00;;;7.20;;
2680;SDS011;1350;42.134;24.708;2023-04-01T14:37:00;12.37;;;7.30;;
2680;SDS011;1350;42.134;24.708;2023-04-01T14:39:48;9.23;;;6.10;;
2680;SDS011;1350;42.134;24.708;2023-04-01T14:42:41;10.40;;;5.90;;
2680;SDS011;1350;42.134;24.708;2023-04-01T14:45:26;12.77;;;6.40;;
2680;SDS011;1350;42.134;24.708;2023-04-01T14:48:25;10.67;;;6.87;;
2680;SDS011;1350;42.134;24.708;2023-04-01T14:51:01;9.33;;;6.10;;
2680;SDS011;1350;42.134;24.708;2023-04-01T14:53:35;17.67;;;6.07;;
2680;SDS011;1350;42.134;24.708;2023-04-01T14:56:06;10.10;;;4.80;;
2680;SDS011;1350;42.134;24.708;2023-04-01T14:58:43;10.43;;;5.50;;
2680;SDS011;1350;42.134;24.708;2023-04-01T15:01:15;9.20;;;4.90;;
2680;SDS011;1350;42.134;24.708;2023-04-01T15:03:57;8.40;;;4.30;;
2680;SDS011;1350;42.134;24.708;2023-04-01T15:06:50;9.13;;;4.13;;
2680;SDS011;1350;42.134;24.708;2023-04-01T15:09:33;6.80;;;3.33;;
2680;SDS011;1350;42.134;24.708;2023-04-01T15:12:11;7.93;;;4.40;;
2680;SDS011;1350;42.134;24.708;2023-04-01T15:15:01;7.60;;;4.40;;
2680;SDS011;1350;42.134;24.708;2023-04-01T15:17:48;8.27;;;4.00;;
2680;SDS011;1350;42.134;24.708;2023-04-01T15:20:29;8.60;;;5.07;;
2680;SDS011;1350;42.134;24.708;2023-04-01T15:23:15;10.63;;;6.90;;
2680;SDS011;1350;42.134;24.708;2023-04-01T15:26:01;8.77;;;4.73;;
2680;SDS011;1350;42.134;24.708;2023-04-01T15:28:40;10.87;;;5.50;;
2680;SDS011;1350;42.134;24.708;2023-04-01T15:31:15;9.10;;;5.47;;
2680;SDS011;1350;42.134;24.708;2023-04-01T15:33:47;7.33;;;4.90;;
2680;SDS011;1350;42.134;24.708;2023-04-01T15:36:26;9.13;;;6.20;;
2680;SDS011;1350;42.134;24.708;2023-04-01T15:39:03;8.90;;;5.70;;
2680;SDS011;1350;42.134;24.708;2023-04-01T15:41:41;13.80;;;6.03;;
2680;SDS011;1350;42.134;24.708;2023-04-01T15:44:38;12.30;;;6.80;;
2680;SDS011;1350;42.134;24.708;2023-04-01T15:47:33;8.53;;;5.83;;
2680;SDS011;1350;42.134;24.708;2023-04-01T15:50:13;11.00;;;5.70;;
2680;SDS011;1350;42.134;24.708;2023-04-01T15:53:03;13.67;;;6.03;;
2680;SDS011;1350;42.134;24.708;2023-04-01T15:55:45;11.33;;;6.30;;
2680;SDS011;1350;42.134;24.708;2023-04-01T15:58:19;9.50;;;5.77;;
2680;SDS011;1350;42.134;24.708;2023-04-01T16:01:07;12.20;;;5.90;;
2680;SDS011;1350;42.134;24.708;2023-04-01T16:03:46;12.17;;;7.40;;
2680;SDS011;1350;42.134;24.708;2023-04-01T16:06:31;11.07;;;6.00;;
2680;SDS011;1350;42.134;24.708;2023-04-01T16:09:13;10.65;;;6.00;;
2680;SDS011;1350;42.134;24.708;2023-04-01T16:11:51;12.07;;;6.10;;
2680;SDS011;1350;42.134;24.708;2023-04-01T16:14:26;15.40;;;7.03;;
2680;SDS011;1350;42.134;24.708;2023-04-01T16:17:03;11.17;;;5.63;;
2680;SDS011;1350;42.134;24.708;2023-04-01T16:19:49;12.07;;;6.43;;
2680;SDS011;1350;42.134;24.708;2023-04-01T16:22:19;7.83;;;4.80;;
2680;SDS011;1350;42.134;24.708;2023-04-01T16:24:51;9.77;;;5.17;;
2680;SDS011;1350;42.134;24.708;2023-04-01T16:27:25;8.47;;;5.30;;
2680;SDS011;1350;42.134;24.708;2023-04-01T16:30:03;8.60;;;4.93;;
2680;SDS011;1350;42.134;24.708;2023-04-01T16:32:53;11.02;;;5.00;;
2680;SDS011;1350;42.134;24.708;2023-04-01T16:35:30;11.88;;;6.50;;
2680;SDS011;1350;42.134;24.708;2023-04-01T16:38:07;11.85;;;6.28;;
2680;SDS011;1350;42.134;24.708;2023-04-01T16:40:42;8.73;;;5.40;;
2680;SDS011;1350;42.134;24.708;2023-04-01T16:43:18;13.93;;;6.90;;
2680;SDS011;1350;42.134;24.708;2023-04-01T16:45:53;8.25;;;5.18;;
2680;SDS011;1350;42.134;24.708;2023-04-01T16:48:34;14.40;;;5.85;;
2680;SDS011;1350;42.134;24.708;2023-04-01T16:51:13;9.30;;;5.40;;
2680;SDS011;1350;42.134;24.708;2023-04-01T16:53:42;9.90;;;5.38;;
2680;SDS011;1350;42.134;24.708;2023-04-01T16:56:14;9.13;;;4.82;;
2680;SDS011;1350;42.134;24.708;2023-04-01T16:58:49;7.38;;;4.47;;
2680;SDS011;1350;42.134;24.708;2023-04-01T17:01:28;8.93;;;5.10;;
2680;SDS011;1350;42.134;24.708;2023-04-01T17:03:58;15.45;;;7.55;;
2680;SDS011;1350;42.134;24.708;2023-04-01T17:06:36;13.80;;;7.50;;